메인 페이지
METAR-TAF:

METAR-TAF

공항 :

벤구리온 국제공항

텔아비브 / 벤구리온, 이스라엘

위도: 32-00N, 경도: 034-54E, 고도: 40m

현재 날씨관측

예보는 5분 전, 16:50시(UTC)에 발표되었습니다.
7kt
온도 25°C
습도 74%
기압 1013 hPa
시정 10km 이상
고도 2500ft 상공 구름 조금

METAR: LLBG 191650Z 35007KT 9999 FEW025 25/20 Q1013 NOSIG

시각: 19:55 (16:55 UTC)

예보

예보는 5 시간 34분 전, 11:21시(UTC)에 발표되었습니다.
예보 대상 시간: 19일 12시부터 20일 12시까지 (UTC)
북서12kt
시정 10km 이상
고도 2500ft 상공 구름 보통
전환 중
19일 18시부터 19일 20시까지 (UTC)
여러 방향의 바람 4kt
전환 중
20일 06시부터 20일 08시까지 (UTC)
10kt
고도 3000ft 상공 구름 보통
확률 30%
20일 08시부터 20일 12시까지 (UTC)
고도 2500ft 상공 구름 조금
고도 3000ft 상공 구름 많음

TAF: LLBG 191121Z 1912/2012 31012KT 9999 SCT025 BECMG 1918/1920 VRB04KT BECMG 2006/2008 28010KT SCT030 PROB30 2008/2012 RA FEW025 BKN030 TX28/1912Z TN21/2003Z

4,000개 이상의 공항 관측 자료 및 예보 (METAR 및 TAF 보고).

지도상에서 검색 가능한 기상관측소가 노란 점과 빨간 점으로 표시되어 있습니다.

기상관측소 명을 보려면 표시 위로 마우스를 이동하세요.

날씨 관측과 예보를 보려면 클릭하세요.

지도 변경 : 확대하려면 엑스 표시가 있는 녹색 버튼, 축소하려면 빼기 표시가 있는 녹색 버튼, 다음 페이지의 지도를 보려면 녹색 화살표를 클릭하세요.


METAR-TAF: